Time;durP1;ratioP1;P1;durP2;ratioP2;P2;SDS_P1;SDS_P2;PMS_P1;PMS_P2;Temp;Humidity;BMP_temperature;BMP_pressure;BME280_temperature;BME280_humidity;BME280_pressure;Samples;Min_cycle;Max_cycle;Signal;HPM_P1;HPM_P2
2023/08/30 00:00:52;;;;;;;8.85;7.45;;;;;;;;;;5031783;28;20049;-74
2023/08/30 00:03:19;;;;;;;11.07;7.97;;;;;;;;;;5031698;28;20050;-74
2023/08/30 00:05:47;;;;;;;9.43;7.60;;;;;;;;;;5031943;28;20046;-75
2023/08/30 00:08:18;;;;;;;9.60;7.70;;;;;;;;;;5031536;28;20084;-74
2023/08/30 00:10:44;;;;;;;10.23;7.60;;;;;;;;;;5031061;28;20049;-74
2023/08/30 00:13:11;;;;;;;14.13;7.78;;;;;;;;;;5032122;28;20041;-74
2023/08/30 00:15:38;;;;;;;11.57;7.82;;;;;;;;;;5031485;28;20049;-73
2023/08/30 00:18:06;;;;;;;10.85;7.70;;;;;;;;;;5031684;28;20049;-73
2023/08/30 00:20:32;;;;;;;10.40;8.45;;;;;;;;;;5030645;28;20053;-73
2023/08/30 00:23:00;;;;;;;9.50;7.82;;;;;;;;;;5031355;28;20050;-74
2023/08/30 00:25:27;;;;;;;9.20;8.07;;;;;;;;;;5031198;28;20045;-73
2023/08/30 00:27:53;;;;;;;10.50;7.82;;;;;;;;;;5031842;28;20503;-73
2023/08/30 00:30:20;;;;;;;12.45;8.52;;;;;;;;;;5030561;28;20049;-73
2023/08/30 00:32:47;;;;;;;10.30;7.50;;;;;;;;;;5030742;28;20076;-74
2023/08/30 00:35:13;;;;;;;11.48;8.80;;;;;;;;;;5030755;28;20052;-73
2023/08/30 00:37:40;;;;;;;12.70;8.90;;;;;;;;;;5031369;28;20056;-73
2023/08/30 00:40:09;;;;;;;10.75;8.63;;;;;;;;;;5030300;28;20052;-73
2023/08/30 00:42:35;;;;;;;12.60;8.30;;;;;;;;;;5031578;28;20053;-73
2023/08/30 00:45:02;;;;;;;12.00;9.23;;;;;;;;;;5031139;28;20425;-73
2023/08/30 00:47:28;;;;;;;11.98;9.15;;;;;;;;;;5030739;28;20547;-73
2023/08/30 00:49:55;;;;;;;11.40;8.25;;;;;;;;;;5030053;28;20041;-74
2023/08/30 00:52:22;;;;;;;10.02;7.63;;;;;;;;;;5030930;28;20052;-74
2023/08/30 00:54:49;;;;;;;11.68;9.30;;;;;;;;;;5031001;28;20052;-73
2023/08/30 00:57:17;;;;;;;12.13;8.82;;;;;;;;;;5030575;28;20060;-74
2023/08/30 00:59:43;;;;;;;10.73;8.15;;;;;;;;;;5030216;28;20046;-74
2023/08/30 01:02:10;;;;;;;10.60;8.88;;;;;;;;;;5030580;28;20491;-73
2023/08/30 01:04:37;;;;;;;10.38;8.02;;;;;;;;;;5031170;28;20073;-74
2023/08/30 01:07:03;;;;;;;11.18;8.27;;;;;;;;;;5030466;28;20045;-73
2023/08/30 01:09:30;;;;;;;10.82;8.27;;;;;;;;;;5030160;28;20053;-73
2023/08/30 01:12:04;;;;;;;10.70;8.05;;;;;;;;;;5030587;28;20053;-73
2023/08/30 01:14:39;;;;;;;12.05;8.13;;;;;;;;;;5030800;28;20049;-74
2023/08/30 01:17:08;;;;;;;11.65;8.52;;;;;;;;;;5029943;28;20050;-74
2023/08/30 01:19:47;;;;;;;9.75;7.70;;;;;;;;;;5030276;28;20041;-73
2023/08/30 01:22:18;;;;;;;10.13;7.53;;;;;;;;;;5030262;28;20086;-73
2023/08/30 01:24:58;;;;;;;11.30;8.23;;;;;;;;;;5030483;28;20045;-73
2023/08/30 01:27:27;;;;;;;10.10;7.78;;;;;;;;;;5030251;28;20045;-74
2023/08/30 01:29:56;;;;;;;12.45;8.25;;;;;;;;;;5030055;28;20049;-73
2023/08/30 01:32:25;;;;;;;10.40;8.18;;;;;;;;;;5030065;28;20041;-73
2023/08/30 01:34:52;;;;;;;12.38;9.10;;;;;;;;;;5030629;28;20498;-73
2023/08/30 01:37:19;;;;;;;11.18;8.48;;;;;;;;;;5030293;28;20051;-73
2023/08/30 01:39:47;;;;;;;11.18;8.63;;;;;;;;;;5029275;28;20065;-73
2023/08/30 01:42:15;;;;;;;9.75;8.38;;;;;;;;;;5030321;28;20140;-73
2023/08/30 01:44:44;;;;;;;10.85;8.07;;;;;;;;;;5030160;28;20050;-73
2023/08/30 01:47:12;;;;;;;11.85;8.02;;;;;;;;;;5030248;28;20491;-73
2023/08/30 01:49:39;;;;;;;11.27;8.52;;;;;;;;;;5029432;28;20615;-74
2023/08/30 01:52:07;;;;;;;11.15;8.55;;;;;;;;;;5030461;28;20046;-73
2023/08/30 01:54:34;;;;;;;10.02;8.07;;;;;;;;;;5029426;28;20156;-73
2023/08/30 01:57:00;;;;;;;10.93;8.00;;;;;;;;;;5030235;28;20308;-73
2023/08/30 01:59:27;;;;;;;11.15;8.00;;;;;;;;;;5029288;28;20344;-74
2023/08/30 02:01:56;;;;;;;10.45;8.25;;;;;;;;;;5030050;28;20116;-73
2023/08/30 02:04:23;;;;;;;11.55;8.05;;;;;;;;;;5029937;28;20046;-73
2023/08/30 02:06:58;;;;;;;11.43;8.98;;;;;;;;;;5029961;28;20491;-73
2023/08/30 02:09:28;;;;;;;10.48;8.48;;;;;;;;;;5029546;28;20064;-73
2023/08/30 02:11:56;;;;;;;13.90;9.57;;;;;;;;;;5029877;28;20048;-73
2023/08/30 02:14:23;;;;;;;14.88;10.20;;;;;;;;;;5029928;28;20046;-74
2023/08/30 02:16:51;;;;;;;14.75;10.75;;;;;;;;;;5029896;28;20060;-73
2023/08/30 02:19:20;;;;;;;15.90;10.85;;;;;;;;;;5030053;28;20053;-73
2023/08/30 02:21:47;;;;;;;14.00;9.52;;;;;;;;;;5028822;28;20053;-73
2023/08/30 02:24:14;;;;;;;16.05;11.07;;;;;;;;;;5029808;28;20535;-73
2023/08/30 02:26:40;;;;;;;15.85;10.68;;;;;;;;;;5029357;28;20041;-73
2023/08/30 02:29:08;;;;;;;17.08;11.73;;;;;;;;;;5029666;28;20050;-73
2023/08/30 02:31:36;;;;;;;14.52;10.68;;;;;;;;;;5028764;28;20049;-74
2023/08/30 02:34:02;;;;;;;16.55;11.05;;;;;;;;;;5029766;28;20045;-74
2023/08/30 02:36:30;;;;;;;14.23;10.82;;;;;;;;;;5029236;28;20099;-74
2023/08/30 02:39:00;;;;;;;15.60;11.13;;;;;;;;;;5030021;28;20049;-74
2023/08/30 02:41:26;;;;;;;15.07;10.52;;;;;;;;;;5028618;28;20068;-73
2023/08/30 02:43:53;;;;;;;15.50;11.40;;;;;;;;;;5029643;28;20049;-73
2023/08/30 02:46:19;;;;;;;16.58;11.02;;;;;;;;;;5029296;28;20060;-73
2023/08/30 02:48:46;;;;;;;16.00;11.63;;;;;;;;;;5029466;28;20072;-72
2023/08/30 02:51:12;;;;;;;14.90;11.52;;;;;;;;;;5028766;28;20443;-74
2023/08/30 02:53:40;;;;;;;17.00;12.25;;;;;;;;;;5030099;28;20541;-74
2023/08/30 02:56:07;;;;;;;16.90;11.23;;;;;;;;;;5029986;28;20072;-73
2023/08/30 02:58:33;;;;;;;13.63;10.60;;;;;;;;;;5032964;28;20060;-73
2023/08/30 03:01:01;;;;;;;16.00;12.32;;;;;;;;;;5032537;28;20046;-73
2023/08/30 03:03:27;;;;;;;15.45;11.18;;;;;;;;;;5032601;28;20431;-72
2023/08/30 03:05:54;;;;;;;15.25;11.27;;;;;;;;;;5033187;28;20045;-73
2023/08/30 03:08:22;;;;;;;14.68;11.50;;;;;;;;;;5032585;28;20050;-73
2023/08/30 03:10:49;;;;;;;15.93;11.27;;;;;;;;;;5032357;28;20514;-73
2023/08/30 03:13:16;;;;;;;15.95;11.35;;;;;;;;;;5032647;28;20496;-72
2023/08/30 03:15:43;;;;;;;17.23;12.15;;;;;;;;;;5032881;28;20052;-73
2023/08/30 03:18:09;;;;;;;16.80;11.98;;;;;;;;;;5033089;28;20057;-75
2023/08/30 03:20:36;;;;;;;17.00;11.30;;;;;;;;;;5032533;28;20076;-73
2023/08/30 03:23:03;;;;;;;13.80;11.00;;;;;;;;;;5032656;28;20052;-73
2023/08/30 03:25:30;;;;;;;14.32;11.02;;;;;;;;;;5033786;28;20064;-73
2023/08/30 03:27:58;;;;;;;15.73;11.40;;;;;;;;;;5032294;28;20049;-74
2023/08/30 03:30:24;;;;;;;13.73;11.27;;;;;;;;;;5031955;28;20049;-73
2023/08/30 03:32:51;;;;;;;17.30;11.30;;;;;;;;;;5032878;28;20046;-73
2023/08/30 03:35:20;;;;;;;13.65;10.23;;;;;;;;;;5032837;28;20388;-73
2023/08/30 03:37:47;;;;;;;14.10;10.15;;;;;;;;;;5032839;28;20041;-73
2023/08/30 03:40:13;;;;;;;14.90;11.30;;;;;;;;;;5031524;28;20057;-73
2023/08/30 03:42:40;;;;;;;14.38;10.85;;;;;;;;;;5032864;28;20049;-73
2023/08/30 03:45:09;;;;;;;13.48;9.70;;;;;;;;;;5032308;28;20308;-73
2023/08/30 03:47:36;;;;;;;12.70;9.25;;;;;;;;;;5032636;28;20499;-73
2023/08/30 03:50:03;;;;;;;12.13;9.38;;;;;;;;;;5031580;28;20049;-73
2023/08/30 03:52:29;;;;;;;11.90;9.45;;;;;;;;;;5032610;28;20054;-73
2023/08/30 03:54:56;;;;;;;13.00;8.93;;;;;;;;;;5032301;28;20049;-73
2023/08/30 03:57:22;;;;;;;10.73;8.93;;;;;;;;;;5032455;28;20041;-74
2023/08/30 03:59:49;;;;;;;12.20;8.63;;;;;;;;;;5031827;28;20058;-73
2023/08/30 04:02:17;;;;;;;13.45;9.52;;;;;;;;;;5033061;28;20053;-73
2023/08/30 04:04:44;;;;;;;13.23;10.05;;;;;;;;;;5032325;28;20136;-74
2023/08/30 04:07:10;;;;;;;14.93;10.13;;;;;;;;;;5032163;28;20049;-73
2023/08/30 04:09:37;;;;;;;12.90;9.85;;;;;;;;;;5030286;28;20061;-73
2023/08/30 04:12:04;;;;;;;13.93;9.68;;;;;;;;;;5032213;28;20497;-73
2023/08/30 04:14:31;;;;;;;15.52;10.55;;;;;;;;;;5032228;28;20407;-73
2023/08/30 04:16:58;;;;;;;14.57;11.02;;;;;;;;;;5031575;28;20521;-73
2023/08/30 04:19:25;;;;;;;16.52;11.20;;;;;;;;;;5032159;28;20076;-73
2023/08/30 04:21:52;;;;;;;15.35;11.23;;;;;;;;;;5031574;28;20052;-73
2023/08/30 04:24:18;;;;;;;17.63;11.35;;;;;;;;;;5032243;28;20132;-73
2023/08/30 04:26:49;;;;;;;15.20;11.73;;;;;;;;;;5030795;28;20451;-73
2023/08/30 04:29:15;;;;;;;14.93;10.40;;;;;;;;;;5031554;28;20048;-73
2023/08/30 04:31:44;;;;;;;16.33;11.85;;;;;;;;;;5030248;28;20046;-72
2023/08/30 04:34:10;;;;;;;14.45;10.75;;;;;;;;;;5031564;28;20041;-74
2023/08/30 04:36:38;;;;;;;17.13;11.68;;;;;;;;;;5031326;28;20045;-74
2023/08/30 04:39:06;;;;;;;16.33;12.35;;;;;;;;;;5031332;28;20114;-74
2023/08/30 04:41:33;;;;;;;19.20;11.88;;;;;;;;;;5030265;28;20555;-74
2023/08/30 04:44:00;;;;;;;17.70;12.05;;;;;;;;;;5031438;28;20060;-74
2023/08/30 04:46:26;;;;;;;15.45;11.48;;;;;;;;;;5031271;28;20092;-75
2023/08/30 04:48:53;;;;;;;16.30;11.80;;;;;;;;;;5031031;28;20048;-73
2023/08/30 04:51:20;;;;;;;16.17;11.07;;;;;;;;;;5030456;28;20052;-73
2023/08/30 04:53:48;;;;;;;19.10;11.45;;;;;;;;;;5030805;28;20096;-74
2023/08/30 04:56:15;;;;;;;17.33;10.73;;;;;;;;;;5030896;28;20042;-74
2023/08/30 04:58:42;;;;;;;16.10;11.25;;;;;;;;;;5030956;28;20060;-73
2023/08/30 05:01:09;;;;;;;13.77;11.05;;;;;;;;;;5030268;28;20045;-74
2023/08/30 05:03:35;;;;;;;15.32;11.13;;;;;;;;;;5030669;28;20139;-74
2023/08/30 05:06:02;;;;;;;14.90;10.77;;;;;;;;;;5031395;28;20049;-73
2023/08/30 05:08:29;;;;;;;16.92;11.32;;;;;;;;;;5030904;28;20470;-74
2023/08/30 05:10:57;;;;;;;14.00;10.25;;;;;;;;;;5030325;28;20046;-73
2023/08/30 05:13:24;;;;;;;19.27;13.55;;;;;;;;;;5030433;28;20050;-74
2023/08/30 05:15:50;;;;;;;15.85;11.18;;;;;;;;;;5031332;28;20351;-73
2023/08/30 05:18:17;;;;;;;14.18;10.32;;;;;;;;;;5030340;28;20049;-74
2023/08/30 05:20:43;;;;;;;24.08;16.20;;;;;;;;;;5029408;28;20046;-74
2023/08/30 05:23:10;;;;;;;15.88;10.80;;;;;;;;;;5031298;28;20041;-73
2023/08/30 05:25:36;;;;;;;14.63;10.57;;;;;;;;;;5030269;28;20071;-73
2023/08/30 05:28:04;;;;;;;26.45;21.15;;;;;;;;;;5030722;28;20047;-74
2023/08/30 05:30:31;;;;;;;57.58;43.72;;;;;;;;;;5029308;28;20503;-74
2023/08/30 05:32:58;;;;;;;34.38;28.92;;;;;;;;;;5030351;28;20563;-73
2023/08/30 05:35:24;;;;;;;13.40;10.60;;;;;;;;;;5029859;28;20244;-73
2023/08/30 05:37:51;;;;;;;11.55;9.18;;;;;;;;;;5030360;28;20065;-74
2023/08/30 05:40:18;;;;;;;13.18;9.13;;;;;;;;;;5029301;28;20064;-74
2023/08/30 05:42:45;;;;;;;17.65;9.07;;;;;;;;;;5030678;28;20045;-73
2023/08/30 05:45:13;;;;;;;17.38;10.55;;;;;;;;;;5030063;28;20423;-74
2023/08/30 05:47:40;;;;;;;13.98;10.30;;;;;;;;;;5030384;28;20055;-73
2023/08/30 05:50:07;;;;;;;13.63;8.55;;;;;;;;;;5028974;28;20050;-74
2023/08/30 05:52:34;;;;;;;13.63;8.27;;;;;;;;;;5030820;28;20045;-73
2023/08/30 05:55:01;;;;;;;17.33;10.80;;;;;;;;;;5030609;28;20059;-74
2023/08/30 05:57:33;;;;;;;12.95;9.68;;;;;;;;;;5030309;28;20426;-73
2023/08/30 05:59:59;;;;;;;15.48;9.13;;;;;;;;;;5030955;28;20062;-73
2023/08/30 06:02:27;;;;;;;14.57;9.43;;;;;;;;;;5029278;28;20089;-74
2023/08/30 06:04:54;;;;;;;11.70;8.07;;;;;;;;;;5045276;28;20044;-73
2023/08/30 06:07:21;;;;;;;14.07;8.63;;;;;;;;;;5048075;28;20045;-73
2023/08/30 06:09:47;;;;;;;14.70;9.40;;;;;;;;;;5047183;28;20473;-73
2023/08/30 06:12:14;;;;;;;17.73;10.43;;;;;;;;;;5049292;28;20076;-73
2023/08/30 06:14:40;;;;;;;16.60;10.50;;;;;;;;;;5049459;28;20120;-73
2023/08/30 06:17:07;;;;;;;17.35;10.05;;;;;;;;;;5048215;28;20446;-74
2023/08/30 06:19:35;;;;;;;17.40;11.82;;;;;;;;;;5047947;28;20415;-73
2023/08/30 06:22:02;;;;;;;17.50;10.45;;;;;;;;;;5049169;28;20411;-73
2023/08/30 06:24:28;;;;;;;14.85;9.85;;;;;;;;;;5047945;28;20610;-73
2023/08/30 06:26:55;;;;;;;16.60;10.35;;;;;;;;;;5038825;28;20534;-73
2023/08/30 06:29:21;;;;;;;15.68;10.65;;;;;;;;;;5011744;28;20516;-72
2023/08/30 06:31:48;;;;;;;21.60;11.73;;;;;;;;;;5020920;28;20045;-73
2023/08/30 06:34:14;;;;;;;20.40;12.02;;;;;;;;;;5031617;28;20056;-74
2023/08/30 06:36:42;;;;;;;17.65;11.77;;;;;;;;;;5033027;28;20053;-73
2023/08/30 06:39:09;;;;;;;18.73;11.50;;;;;;;;;;5030867;28;20046;-73
2023/08/30 06:41:35;;;;;;;18.60;11.90;;;;;;;;;;5025920;28;20053;-71
2023/08/30 06:44:02;;;;;;;17.67;11.07;;;;;;;;;;5032551;28;20136;-72
2023/08/30 06:46:28;;;;;;;14.73;10.65;;;;;;;;;;5029190;28;20196;-72
2023/08/30 06:48:55;;;;;;;13.93;10.15;;;;;;;;;;5036582;28;20459;-72
2023/08/30 06:51:21;;;;;;;13.50;9.60;;;;;;;;;;5050389;28;20359;-72
2023/08/30 06:53:49;;;;;;;14.63;9.82;;;;;;;;;;5049909;28;20052;-70
2023/08/30 06:56:16;;;;;;;13.70;9.10;;;;;;;;;;5013895;28;20045;-71
2023/08/30 06:58:42;;;;;;;12.43;9.13;;;;;;;;;;5025328;28;20048;-71
2023/08/30 07:01:09;;;;;;;12.30;9.38;;;;;;;;;;5018583;28;20046;-70
2023/08/30 07:03:36;;;;;;;13.75;8.93;;;;;;;;;;5031754;28;20081;-70
2023/08/30 07:06:03;;;;;;;11.38;8.05;;;;;;;;;;5029643;28;20487;-70
2023/08/30 07:08:30;;;;;;;11.40;8.80;;;;;;;;;;5021544;28;20055;-72
2023/08/30 07:10:58;;;;;;;13.27;9.20;;;;;;;;;;5030394;28;20045;-70
2023/08/30 07:13:24;;;;;;;13.23;9.38;;;;;;;;;;5030793;28;20045;-70
2023/08/30 07:15:51;;;;;;;11.50;9.48;;;;;;;;;;5031689;28;20138;-71
2023/08/30 07:18:17;;;;;;;11.50;8.93;;;;;;;;;;5039534;28;20049;-71
2023/08/30 07:20:44;;;;;;;10.73;8.25;;;;;;;;;;5035629;28;20041;-70
2023/08/30 07:23:11;;;;;;;12.18;8.80;;;;;;;;;;5049453;28;20067;-70
2023/08/30 07:25:38;;;;;;;11.93;9.25;;;;;;;;;;5032661;28;20487;-70
2023/08/30 07:28:06;;;;;;;12.30;9.32;;;;;;;;;;5014523;28;20073;-73
2023/08/30 07:30:34;;;;;;;11.95;9.05;;;;;;;;;;5022343;28;20147;-73
2023/08/30 07:33:01;;;;;;;11.75;9.35;;;;;;;;;;5029663;28;20191;-73
2023/08/30 07:35:28;;;;;;;13.93;10.32;;;;;;;;;;5029604;28;20057;-73
2023/08/30 07:37:54;;;;;;;13.82;10.77;;;;;;;;;;5030496;28;20046;-71
2023/08/30 07:40:24;;;;;;;15.88;10.40;;;;;;;;;;5027032;28;20049;-73
2023/08/30 07:42:50;;;;;;;13.88;10.25;;;;;;;;;;5027940;28;20054;-73
2023/08/30 07:45:18;;;;;;;17.55;10.50;;;;;;;;;;5038172;28;20406;-73
2023/08/30 07:47:45;;;;;;;14.45;10.15;;;;;;;;;;5038701;28;20124;-73
2023/08/30 07:50:11;;;;;;;13.05;9.73;;;;;;;;;;5024900;28;20046;-72
2023/08/30 07:52:38;;;;;;;11.10;9.00;;;;;;;;;;5023193;28;20050;-70
2023/08/30 07:55:04;;;;;;;10.32;9.15;;;;;;;;;;5031681;28;20521;-70
2023/08/30 07:57:31;;;;;;;14.15;8.82;;;;;;;;;;5012324;28;20863;-70
2023/08/30 07:59:57;;;;;;;9.73;8.55;;;;;;;;;;5026295;28;20051;-70
2023/08/30 08:02:25;;;;;;;10.73;8.63;;;;;;;;;;5025393;28;20037;-71
2023/08/30 08:04:52;;;;;;;11.18;9.48;;;;;;;;;;5026371;28;20458;-71
2023/08/30 08:07:19;;;;;;;9.88;8.77;;;;;;;;;;5029783;28;20045;-71
2023/08/30 08:09:45;;;;;;;10.45;8.13;;;;;;;;;;5013947;28;20517;-72
2023/08/30 08:12:12;;;;;;;9.70;8.40;;;;;;;;;;5019246;28;20049;-71
2023/08/30 08:14:38;;;;;;;8.98;7.97;;;;;;;;;;5021224;28;20075;-68
2023/08/30 08:17:05;;;;;;;14.52;9.68;;;;;;;;;;5025777;28;20038;-70
2023/08/30 08:19:33;;;;;;;10.80;8.57;;;;;;;;;;5028043;28;20165;-68
2023/08/30 08:22:00;;;;;;;9.88;7.82;;;;;;;;;;5028163;28;20044;-69
2023/08/30 08:24:26;;;;;;;10.77;8.93;;;;;;;;;;5026447;28;20047;-69
2023/08/30 08:26:53;;;;;;;11.07;8.52;;;;;;;;;;5017245;28;20391;-69
2023/08/30 08:29:19;;;;;;;13.25;8.73;;;;;;;;;;5025763;28;20497;-68
2023/08/30 08:31:46;;;;;;;12.25;8.23;;;;;;;;;;5027867;28;20143;-69
2023/08/30 08:34:14;;;;;;;11.00;8.07;;;;;;;;;;5028648;28;20042;-72
2023/08/30 08:36:43;;;;;;;13.50;8.35;;;;;;;;;;5028895;28;20068;-70
2023/08/30 08:39:10;;;;;;;13.25;8.27;;;;;;;;;;5029736;28;20052;-69
2023/08/30 08:41:41;;;;;;;12.95;8.15;;;;;;;;;;5026822;28;20049;-73
2023/08/30 08:44:08;;;;;;;11.32;8.07;;;;;;;;;;5023786;28;20129;-73
2023/08/30 08:46:36;;;;;;;9.52;7.47;;;;;;;;;;5027402;28;20049;-72
2023/08/30 08:49:08;;;;;;;10.70;7.75;;;;;;;;;;5029789;28;20049;-72
2023/08/30 08:51:36;;;;;;;;;;;;;;;;;;5027838;28;20060;-71
2023/08/30 08:54:05;;;;;;;11.02;7.22;;;;;;;;;;5036432;28;19921;-72
2023/08/30 08:56:32;;;;;;;11.13;7.80;;;;;;;;;;5027647;28;20049;-71
2023/08/30 08:58:58;;;;;;;9.75;7.20;;;;;;;;;;5024904;28;20537;-72
2023/08/30 09:01:25;;;;;;;10.63;7.32;;;;;;;;;;5026981;28;20056;-72
2023/08/30 09:03:52;;;;;;;8.80;6.70;;;;;;;;;;5029129;28;20045;-72
2023/08/30 09:06:19;;;;;;;9.93;7.00;;;;;;;;;;5025052;28;20041;-70
2023/08/30 09:08:46;;;;;;;12.82;7.43;;;;;;;;;;5022180;28;20041;-72
2023/08/30 09:11:14;;;;;;;9.40;7.65;;;;;;;;;;5026374;28;20128;-72
2023/08/30 09:13:40;;;;;;;10.55;7.00;;;;;;;;;;5045194;28;20487;-71
2023/08/30 09:16:12;;;;;;;9.95;7.05;;;;;;;;;;5033775;28;20047;-72
2023/08/30 09:18:39;;;;;;;9.65;6.72;;;;;;;;;;5023001;28;20051;-71
2023/08/30 09:21:06;;;;;;;7.18;5.75;;;;;;;;;;5026240;28;20059;-71
2023/08/30 09:23:34;;;;;;;9.02;5.85;;;;;;;;;;5028191;28;20473;-71
2023/08/30 09:26:02;;;;;;;8.35;6.40;;;;;;;;;;5028627;28;20041;-71
2023/08/30 09:28:31;;;;;;;6.65;5.43;;;;;;;;;;5029276;28;20071;-72
2023/08/30 09:30:58;;;;;;;6.95;5.80;;;;;;;;;;5028149;28;20045;-72
2023/08/30 09:33:31;;;;;;;8.20;4.97;;;;;;;;;;5028462;28;20052;-71
2023/08/30 09:35:58;;;;;;;7.53;5.32;;;;;;;;;;5027255;28;20543;-71
2023/08/30 09:38:25;;;;;;;7.68;4.65;;;;;;;;;;5021168;28;20041;-70
2023/08/30 09:40:51;;;;;;;6.38;4.63;;;;;;;;;;5027169;28;20139;-70
2023/08/30 09:43:21;;;;;;;8.27;5.20;;;;;;;;;;5026808;28;20529;-70
2023/08/30 09:45:49;;;;;;;7.75;5.18;;;;;;;;;;5029131;28;20479;-70
2023/08/30 09:48:16;;;;;;;4.95;4.45;;;;;;;;;;5045499;28;20479;-68
2023/08/30 09:50:46;;;;;;;8.23;4.75;;;;;;;;;;5027900;28;20045;-69
2023/08/30 09:53:17;;;;;;;4.75;4.18;;;;;;;;;;5013325;28;20057;-69
2023/08/30 09:55:44;;;;;;;6.28;3.55;;;;;;;;;;5025098;28;20042;-70
2023/08/30 09:58:11;;;;;;;5.30;3.85;;;;;;;;;;5021557;28;20077;-73
2023/08/30 10:00:38;;;;;;;5.40;3.67;;;;;;;;;;5024408;28;20128;-71
2023/08/30 10:03:07;;;;;;;5.18;3.58;;;;;;;;;;5027639;28;20041;-70
2023/08/30 10:05:35;;;;;;;6.10;3.50;;;;;;;;;;5021421;28;20504;-70
2023/08/30 10:08:04;;;;;;;4.45;3.35;;;;;;;;;;5049540;28;20059;-68
2023/08/30 10:10:32;;;;;;;4.55;3.55;;;;;;;;;;5031403;28;20049;-70
2023/08/30 10:12:59;;;;;;;4.72;3.50;;;;;;;;;;5031709;28;20049;-69
2023/08/30 10:15:28;;;;;;;5.80;3.58;;;;;;;;;;5031685;28;20407;-70
2023/08/30 10:17:58;;;;;;;3.92;3.53;;;;;;;;;;5025633;28;20049;-71
2023/08/30 10:20:28;;;;;;;5.15;3.67;;;;;;;;;;5031480;28;20045;-72
2023/08/30 10:22:56;;;;;;;5.00;3.70;;;;;;;;;;5026614;28;20151;-71
2023/08/30 10:25:27;;;;;;;4.82;3.35;;;;;;;;;;5032317;28;20488;-69
2023/08/30 10:27:54;;;;;;;6.60;3.53;;;;;;;;;;5032367;28;20045;-69
2023/08/30 10:30:22;;;;;;;3.90;3.20;;;;;;;;;;5031577;28;20048;-70
2023/08/30 10:32:49;;;;;;;4.80;3.13;;;;;;;;;;5036007;28;20041;-71
2023/08/30 10:35:18;;;;;;;5.68;3.33;;;;;;;;;;5045430;28;20170;-70
2023/08/30 10:37:56;;;;;;;4.22;2.42;;;;;;;;;;5036451;28;20506;-72
2023/08/30 10:40:23;;;;;;;4.53;2.80;;;;;;;;;;5045644;28;20582;-72
2023/08/30 10:42:59;;;;;;;5.50;2.88;;;;;;;;;;5039128;28;20529;-71
2023/08/30 10:45:26;;;;;;;5.63;3.05;;;;;;;;;;5028989;28;20042;-69
2023/08/30 10:47:56;;;;;;;4.00;3.08;;;;;;;;;;5024702;28;20531;-70
2023/08/30 10:50:29;;;;;;;3.42;2.70;;;;;;;;;;5025231;28;20057;-70
2023/08/30 10:52:57;;;;;;;3.85;2.90;;;;;;;;;;5030629;28;20045;-69
2023/08/30 10:55:24;;;;;;;5.70;2.88;;;;;;;;;;5029932;28;20049;-70
2023/08/30 10:58:00;;;;;;;4.05;2.95;;;;;;;;;;5030433;28;20041;-69
2023/08/30 11:00:29;;;;;;;4.93;2.72;;;;;;;;;;5023666;28;20049;-70
2023/08/30 11:02:56;;;;;;;5.18;2.97;;;;;;;;;;5031943;28;20041;-70
2023/08/30 11:05:24;;;;;;;2.92;2.22;;;;;;;;;;5023121;28;20048;-69
2023/08/30 11:07:52;;;;;;;4.25;3.03;;;;;;;;;;5027479;28;20483;-69
2023/08/30 11:10:20;;;;;;;6.78;2.92;;;;;;;;;;5030614;28;20045;-70
2023/08/30 11:12:49;;;;;;;6.93;3.03;;;;;;;;;;5032256;28;20045;-70
2023/08/30 11:15:16;;;;;;;4.03;2.58;;;;;;;;;;5020478;28;20514;-70
2023/08/30 11:17:42;;;;;;;4.03;2.85;;;;;;;;;;5021559;28;20045;-70
2023/08/30 11:20:11;;;;;;;5.03;2.83;;;;;;;;;;5013959;28;20377;-70
2023/08/30 11:22:37;;;;;;;5.60;3.63;;;;;;;;;;5016500;28;20518;-70
2023/08/30 11:25:05;;;;;;;5.85;3.63;;;;;;;;;;5011371;28;20053;-70
2023/08/30 11:27:33;;;;;;;4.80;3.30;;;;;;;;;;5012210;28;20050;-70
2023/08/30 11:30:00;;;;;;;4.70;3.42;;;;;;;;;;5016244;28;20414;-69
2023/08/30 11:32:27;;;;;;;4.75;3.50;;;;;;;;;;5019987;28;20101;-69
2023/08/30 11:34:57;;;;;;;6.63;3.80;;;;;;;;;;5021602;28;20484;-70
2023/08/30 11:37:27;;;;;;;6.93;4.25;;;;;;;;;;5022524;28;20189;-70
2023/08/30 11:39:53;;;;;;;5.88;3.80;;;;;;;;;;5024941;28;20042;-70
2023/08/30 11:42:20;;;;;;;5.93;3.20;;;;;;;;;;5016893;28;20056;-70
2023/08/30 11:44:48;;;;;;;3.97;3.45;;;;;;;;;;5017086;28;20053;-70
2023/08/30 11:47:19;;;;;;;5.15;3.75;;;;;;;;;;5026605;28;20069;-70
2023/08/30 11:49:46;;;;;;;6.55;3.40;;;;;;;;;;5029446;28;20112;-70
2023/08/30 11:52:13;;;;;;;5.30;3.80;;;;;;;;;;5028897;28;20042;-70
2023/08/30 11:54:39;;;;;;;4.95;3.65;;;;;;;;;;5027892;28;20057;-70
2023/08/30 11:57:06;;;;;;;5.70;3.45;;;;;;;;;;5022734;28;20507;-70
2023/08/30 11:59:36;;;;;;;5.32;3.40;;;;;;;;;;5015050;28;20542;-70
2023/08/30 12:02:04;;;;;;;6.00;3.50;;;;;;;;;;5019052;28;20518;-70
2023/08/30 12:04:31;;;;;;;8.80;3.20;;;;;;;;;;5017379;28;20078;-70
2023/08/30 12:06:59;;;;;;;4.38;2.67;;;;;;;;;;5014548;28;20042;-70
2023/08/30 12:09:31;;;;;;;4.72;2.85;;;;;;;;;;5021002;28;20049;-70
2023/08/30 12:12:06;;;;;;;3.22;2.63;;;;;;;;;;5028268;28;20041;-70
2023/08/30 12:14:34;;;;;;;4.65;2.72;;;;;;;;;;5018736;28;20051;-69
2023/08/30 12:17:01;;;;;;;5.25;2.70;;;;;;;;;;5017926;28;20049;-69
2023/08/30 12:19:30;;;;;;;3.80;2.83;;;;;;;;;;5025348;28;20140;-69
2023/08/30 12:21:57;;;;;;;4.13;2.28;;;;;;;;;;5021413;28;20048;-70
2023/08/30 12:24:23;;;;;;;5.10;2.53;;;;;;;;;;5019706;28;20059;-70
2023/08/30 12:26:50;;;;;;;2.88;2.20;;;;;;;;;;5027868;28;20080;-70
2023/08/30 12:29:16;;;;;;;5.82;2.42;;;;;;;;;;5014396;28;20476;-70
2023/08/30 12:31:43;;;;;;;8.20;2.83;;;;;;;;;;5020765;28;20056;-68
2023/08/30 12:34:10;;;;;;;6.70;2.60;;;;;;;;;;5020810;28;20547;-70
2023/08/30 12:36:38;;;;;;;3.88;2.30;;;;;;;;;;5024254;28;20137;-70
2023/08/30 12:39:05;;;;;;;4.20;2.13;;;;;;;;;;5017440;28;20048;-69
2023/08/30 12:41:32;;;;;;;3.95;2.40;;;;;;;;;;5018152;28;20050;-70
2023/08/30 12:43:59;;;;;;;8.20;2.67;;;;;;;;;;5019698;28;20061;-70
2023/08/30 12:46:25;;;;;;;3.05;2.25;;;;;;;;;;5024380;28;20485;-70
2023/08/30 12:48:51;;;;;;;4.78;2.28;;;;;;;;;;5022714;28;20136;-70
2023/08/30 12:51:18;;;;;;;2.97;2.20;;;;;;;;;;5018212;28;20126;-70
2023/08/30 12:53:46;;;;;;;2.80;2.25;;;;;;;;;;5026792;28;20511;-70
2023/08/30 12:56:12;;;;;;;4.07;2.20;;;;;;;;;;5019068;28;20073;-70
2023/08/30 12:58:39;;;;;;;4.93;2.25;;;;;;;;;;5021570;28;20076;-70
2023/08/30 13:01:06;;;;;;;4.00;2.10;;;;;;;;;;5015640;28;20045;-70
2023/08/30 13:03:32;;;;;;;5.18;2.28;;;;;;;;;;5018539;28;20050;-70
2023/08/30 13:05:59;;;;;;;4.22;2.15;;;;;;;;;;5018502;28;20563;-69
2023/08/30 13:08:26;;;;;;;6.90;2.95;;;;;;;;;;5018501;28;20051;-70
2023/08/30 13:10:54;;;;;;;3.50;2.28;;;;;;;;;;5011513;28;20073;-69
2023/08/30 13:13:21;;;;;;;6.00;2.40;;;;;;;;;;5017375;28;20042;-69
2023/08/30 13:15:48;;;;;;;3.33;2.25;;;;;;;;;;5017936;28;20042;-70
2023/08/30 13:18:15;;;;;;;4.50;2.10;;;;;;;;;;5018415;28;20507;-69
2023/08/30 13:20:42;;;;;;;6.00;2.53;;;;;;;;;;5014186;28;20194;-70
2023/08/30 13:23:09;;;;;;;4.32;2.50;;;;;;;;;;5015277;28;20037;-69
2023/08/30 13:25:39;;;;;;;3.13;2.05;;;;;;;;;;5018796;28;20046;-69
2023/08/30 13:28:08;;;;;;;4.72;2.20;;;;;;;;;;5021433;28;20037;-69
2023/08/30 13:30:34;;;;;;;3.30;2.40;;;;;;;;;;5024521;28;20562;-69
2023/08/30 13:33:01;;;;;;;4.80;2.50;;;;;;;;;;5030284;28;20041;-69
2023/08/30 13:35:27;;;;;;;6.03;3.30;;;;;;;;;;5030181;28;20049;-69
2023/08/30 13:37:54;;;;;;;3.30;2.55;;;;;;;;;;5030737;28;20054;-69
2023/08/30 13:40:20;;;;;;;5.63;2.78;;;;;;;;;;5029262;28;20046;-69
2023/08/30 13:42:47;;;;;;;3.70;2.42;;;;;;;;;;5030732;28;20408;-70
2023/08/30 13:45:15;;;;;;;3.55;2.90;;;;;;;;;;5030079;28;20059;-69
2023/08/30 13:47:42;;;;;;;5.53;2.80;;;;;;;;;;5029341;28;20054;-69
2023/08/30 13:50:09;;;;;;;3.60;3.00;;;;;;;;;;5009712;28;20052;-69
2023/08/30 13:52:35;;;;;;;4.03;3.10;;;;;;;;;;5010614;28;20496;-69
2023/08/30 13:55:02;;;;;;;3.47;2.63;;;;;;;;;;5010215;28;20053;-69
2023/08/30 13:57:28;;;;;;;4.20;2.78;;;;;;;;;;5010326;28;20120;-69
2023/08/30 13:59:55;;;;;;;2.55;2.10;;;;;;;;;;5008855;28;20056;-69
2023/08/30 14:02:24;;;;;;;1.83;1.70;;;;;;;;;;5010612;28;20423;-69
2023/08/30 14:04:51;;;;;;;3.45;1.90;;;;;;;;;;5010123;28;20463;-69
2023/08/30 14:07:18;;;;;;;2.03;1.80;;;;;;;;;;5010247;28;20072;-69
2023/08/30 14:09:44;;;;;;;2.10;1.83;;;;;;;;;;5009925;28;20049;-69
2023/08/30 14:12:11;;;;;;;4.75;2.13;;;;;;;;;;5009892;28;20050;-69
2023/08/30 14:14:37;;;;;;;7.15;3.00;;;;;;;;;;5024397;28;20060;-69
2023/08/30 14:17:04;;;;;;;6.35;3.90;;;;;;;;;;5029806;28;20426;-69
2023/08/30 14:19:34;;;;;;;3.30;3.00;;;;;;;;;;5029020;28;20042;-69
2023/08/30 14:22:03;;;;;;;4.90;3.80;;;;;;;;;;5029929;28;20121;-69
2023/08/30 14:24:30;;;;;;;4.93;3.42;;;;;;;;;;5029811;28;20069;-69
2023/08/30 14:26:56;;;;;;;3.75;3.22;;;;;;;;;;5029198;28;20045;-69
2023/08/30 14:29:23;;;;;;;5.13;4.18;;;;;;;;;;5030769;28;20061;-69
2023/08/30 14:31:49;;;;;;;5.57;3.95;;;;;;;;;;5029073;28;20051;-69